sensor_id;sensor_type;location;lat;lon;timestamp;temperature;humidity
3198;DHT22;1611;49.394;11.136;2022-12-07T00:01:21;4.40;68.00
3198;DHT22;1611;49.394;11.136;2022-12-07T00:03:52;4.50;68.10
3198;DHT22;1611;49.394;11.136;2022-12-07T00:06:20;4.40;68.10
3198;DHT22;1611;49.394;11.136;2022-12-07T00:08:47;4.40;66.90
3198;DHT22;1611;49.394;11.136;2022-12-07T00:11:15;4.40;67.20
3198;DHT22;1611;49.394;11.136;2022-12-07T00:13:43;4.50;67.60
3198;DHT22;1611;49.394;11.136;2022-12-07T00:16:11;4.40;67.30
3198;DHT22;1611;49.394;11.136;2022-12-07T00:18:39;4.50;67.00
3198;DHT22;1611;49.394;11.136;2022-12-07T00:21:10;4.50;66.70
3198;DHT22;1611;49.394;11.136;2022-12-07T00:23:37;4.40;66.00
3198;DHT22;1611;49.394;11.136;2022-12-07T00:26:06;4.40;66.20
3198;DHT22;1611;49.394;11.136;2022-12-07T00:28:33;4.40;66.90
3198;DHT22;1611;49.394;11.136;2022-12-07T00:31:03;4.40;67.10
3198;DHT22;1611;49.394;11.136;2022-12-07T00:33:30;4.50;67.60
3198;DHT22;1611;49.394;11.136;2022-12-07T00:35:57;4.40;67.30
3198;DHT22;1611;49.394;11.136;2022-12-07T00:38:28;4.40;66.70
3198;DHT22;1611;49.394;11.136;2022-12-07T00:41:00;4.30;67.20
3198;DHT22;1611;49.394;11.136;2022-12-07T00:43:27;4.40;67.80
3198;DHT22;1611;49.394;11.136;2022-12-07T00:45:55;4.40;67.70
3198;DHT22;1611;49.394;11.136;2022-12-07T00:48:22;4.40;67.50
3198;DHT22;1611;49.394;11.136;2022-12-07T00:50:49;4.50;67.30
3198;DHT22;1611;49.394;11.136;2022-12-07T00:53:17;4.40;66.70
3198;DHT22;1611;49.394;11.136;2022-12-07T00:55:46;4.40;66.50
3198;DHT22;1611;49.394;11.136;2022-12-07T00:58:12;4.40;66.50
3198;DHT22;1611;49.394;11.136;2022-12-07T01:00:41;4.50;67.00
3198;DHT22;1611;49.394;11.136;2022-12-07T01:03:10;4.50;66.60
3198;DHT22;1611;49.394;11.136;2022-12-07T01:05:37;4.50;66.50
3198;DHT22;1611;49.394;11.136;2022-12-07T01:08:04;4.50;67.10
3198;DHT22;1611;49.394;11.136;2022-12-07T01:10:31;4.50;67.40
3198;DHT22;1611;49.394;11.136;2022-12-07T01:12:59;4.50;66.60
3198;DHT22;1611;49.394;11.136;2022-12-07T01:15:26;4.50;67.10
3198;DHT22;1611;49.394;11.136;2022-12-07T01:17:53;4.50;66.80
3198;DHT22;1611;49.394;11.136;2022-12-07T01:20:21;4.40;66.60
3198;DHT22;1611;49.394;11.136;2022-12-07T01:22:48;4.40;65.80
3198;DHT22;1611;49.394;11.136;2022-12-07T01:25:15;4.40;65.90
3198;DHT22;1611;49.394;11.136;2022-12-07T01:27:41;4.40;66.50
3198;DHT22;1611;49.394;11.136;2022-12-07T01:30:12;4.40;66.30
3198;DHT22;1611;49.394;11.136;2022-12-07T01:32:39;4.40;66.90
3198;DHT22;1611;49.394;11.136;2022-12-07T01:35:06;4.40;66.50
3198;DHT22;1611;49.394;11.136;2022-12-07T01:37:34;4.40;67.10
3198;DHT22;1611;49.394;11.136;2022-12-07T01:40:03;4.40;67.00
3198;DHT22;1611;49.394;11.136;2022-12-07T01:42:30;4.40;67.00
3198;DHT22;1611;49.394;11.136;2022-12-07T01:45:34;4.50;67.50
3198;DHT22;1611;49.394;11.136;2022-12-07T01:48:04;4.40;67.20
3198;DHT22;1611;49.394;11.136;2022-12-07T01:50:32;4.50;67.60
3198;DHT22;1611;49.394;11.136;2022-12-07T01:53:00;4.50;66.90
3198;DHT22;1611;49.394;11.136;2022-12-07T01:55:28;4.40;66.70
3198;DHT22;1611;49.394;11.136;2022-12-07T01:57:55;4.50;67.50
3198;DHT22;1611;49.394;11.136;2022-12-07T02:00:23;4.50;66.30
3198;DHT22;1611;49.394;11.136;2022-12-07T02:02:55;4.50;66.70
3198;DHT22;1611;49.394;11.136;2022-12-07T02:05:24;4.40;66.80
3198;DHT22;1611;49.394;11.136;2022-12-07T02:07:54;4.40;66.70
3198;DHT22;1611;49.394;11.136;2022-12-07T02:10:24;4.40;66.50
3198;DHT22;1611;49.394;11.136;2022-12-07T02:12:55;4.40;67.10
3198;DHT22;1611;49.394;11.136;2022-12-07T02:15:27;4.40;67.30
3198;DHT22;1611;49.394;11.136;2022-12-07T02:18:03;4.30;67.40
3198;DHT22;1611;49.394;11.136;2022-12-07T02:20:37;4.30;66.70
3198;DHT22;1611;49.394;11.136;2022-12-07T02:23:36;4.20;67.20
3198;DHT22;1611;49.394;11.136;2022-12-07T02:26:30;4.20;67.10
3198;DHT22;1611;49.394;11.136;2022-12-07T02:29:22;4.10;67.30
3198;DHT22;1611;49.394;11.136;2022-12-07T02:31:55;4.00;67.80
3198;DHT22;1611;49.394;11.136;2022-12-07T02:34:30;4.00;68.40
3198;DHT22;1611;49.394;11.136;2022-12-07T02:37:02;4.10;68.90
3198;DHT22;1611;49.394;11.136;2022-12-07T02:39:40;4.10;69.10
3198;DHT22;1611;49.394;11.136;2022-12-07T02:42:14;4.10;68.80
3198;DHT22;1611;49.394;11.136;2022-12-07T02:44:44;4.10;68.80
3198;DHT22;1611;49.394;11.136;2022-12-07T02:47:14;4.20;68.50
3198;DHT22;1611;49.394;11.136;2022-12-07T02:49:42;4.10;68.10
3198;DHT22;1611;49.394;11.136;2022-12-07T02:52:09;4.10;68.30
3198;DHT22;1611;49.394;11.136;2022-12-07T02:54:36;4.20;68.70
3198;DHT22;1611;49.394;11.136;2022-12-07T02:57:14;4.20;68.50
3198;DHT22;1611;49.394;11.136;2022-12-07T02:59:53;4.20;68.00
3198;DHT22;1611;49.394;11.136;2022-12-07T03:02:28;4.20;68.20
3198;DHT22;1611;49.394;11.136;2022-12-07T03:05:07;4.20;67.90
3198;DHT22;1611;49.394;11.136;2022-12-07T03:07:42;4.20;67.60
3198;DHT22;1611;49.394;11.136;2022-12-07T03:10:19;4.20;67.40
3198;DHT22;1611;49.394;11.136;2022-12-07T03:12:53;4.10;68.10
3198;DHT22;1611;49.394;11.136;2022-12-07T03:15:29;4.10;68.60
3198;DHT22;1611;49.394;11.136;2022-12-07T03:17:57;4.00;68.60
3198;DHT22;1611;49.394;11.136;2022-12-07T03:20:26;4.00;68.80
3198;DHT22;1611;49.394;11.136;2022-12-07T03:22:54;4.00;69.30
3198;DHT22;1611;49.394;11.136;2022-12-07T03:25:21;3.80;69.30
3198;DHT22;1611;49.394;11.136;2022-12-07T03:27:51;3.80;69.60
3198;DHT22;1611;49.394;11.136;2022-12-07T03:30:23;3.60;69.50
3198;DHT22;1611;49.394;11.136;2022-12-07T03:32:55;3.60;69.80
3198;DHT22;1611;49.394;11.136;2022-12-07T03:35:26;3.50;70.50
3198;DHT22;1611;49.394;11.136;2022-12-07T03:37:55;3.30;70.90
3198;DHT22;1611;49.394;11.136;2022-12-07T03:40:27;3.40;70.80
3198;DHT22;1611;49.394;11.136;2022-12-07T03:42:56;3.40;70.60
3198;DHT22;1611;49.394;11.136;2022-12-07T03:45:30;3.40;70.50
3198;DHT22;1611;49.394;11.136;2022-12-07T03:48:07;3.30;70.40
3198;DHT22;1611;49.394;11.136;2022-12-07T03:50:40;3.30;70.80
3198;DHT22;1611;49.394;11.136;2022-12-07T03:53:11;3.30;71.00
3198;DHT22;1611;49.394;11.136;2022-12-07T03:55:42;3.20;71.20
3198;DHT22;1611;49.394;11.136;2022-12-07T03:58:12;3.10;71.20
3198;DHT22;1611;49.394;11.136;2022-12-07T04:00:41;3.10;71.50
3198;DHT22;1611;49.394;11.136;2022-12-07T04:03:10;3.00;71.40
3198;DHT22;1611;49.394;11.136;2022-12-07T04:05:37;3.00;71.60
3198;DHT22;1611;49.394;11.136;2022-12-07T04:08:04;2.90;71.40
3198;DHT22;1611;49.394;11.136;2022-12-07T04:10:31;2.80;72.00
3198;DHT22;1611;49.394;11.136;2022-12-07T04:12:58;2.80;71.60
3198;DHT22;1611;49.394;11.136;2022-12-07T04:15:25;2.70;71.60
3198;DHT22;1611;49.394;11.136;2022-12-07T04:17:51;2.60;71.50
3198;DHT22;1611;49.394;11.136;2022-12-07T04:20:20;2.60;71.40
3198;DHT22;1611;49.394;11.136;2022-12-07T04:22:47;2.50;71.50
3198;DHT22;1611;49.394;11.136;2022-12-07T04:25:14;2.40;71.50
3198;DHT22;1611;49.394;11.136;2022-12-07T04:27:41;2.40;71.50
3198;DHT22;1611;49.394;11.136;2022-12-07T04:30:08;2.40;71.30
3198;DHT22;1611;49.394;11.136;2022-12-07T04:32:35;2.30;71.30
3198;DHT22;1611;49.394;11.136;2022-12-07T04:35:02;2.30;71.30
3198;DHT22;1611;49.394;11.136;2022-12-07T04:37:31;2.20;71.30
3198;DHT22;1611;49.394;11.136;2022-12-07T04:39:57;2.20;71.30
3198;DHT22;1611;49.394;11.136;2022-12-07T04:42:24;2.20;71.10
3198;DHT22;1611;49.394;11.136;2022-12-07T04:44:51;2.20;71.10
3198;DHT22;1611;49.394;11.136;2022-12-07T04:47:18;2.10;71.40
3198;DHT22;1611;49.394;11.136;2022-12-07T04:49:45;2.20;71.80
3198;DHT22;1611;49.394;11.136;2022-12-07T04:52:11;2.10;71.60
3198;DHT22;1611;49.394;11.136;2022-12-07T04:54:39;2.10;71.80
3198;DHT22;1611;49.394;11.136;2022-12-07T04:57:06;2.10;72.00
3198;DHT22;1611;49.394;11.136;2022-12-07T04:59:33;2.20;71.90
3198;DHT22;1611;49.394;11.136;2022-12-07T05:02:00;2.20;72.00
3198;DHT22;1611;49.394;11.136;2022-12-07T05:04:27;2.20;71.90
3198;DHT22;1611;49.394;11.136;2022-12-07T05:06:53;2.30;72.20
3198;DHT22;1611;49.394;11.136;2022-12-07T05:09:20;2.30;71.90
3198;DHT22;1611;49.394;11.136;2022-12-07T05:11:48;2.40;72.00
3198;DHT22;1611;49.394;11.136;2022-12-07T05:14:17;2.50;72.30
3198;DHT22;1611;49.394;11.136;2022-12-07T05:16:45;2.40;72.00
3198;DHT22;1611;49.394;11.136;2022-12-07T05:19:12;2.60;72.10
3198;DHT22;1611;49.394;11.136;2022-12-07T05:21:40;2.60;71.80
3198;DHT22;1611;49.394;11.136;2022-12-07T05:24:08;2.60;71.70
3198;DHT22;1611;49.394;11.136;2022-12-07T05:26:36;2.60;71.70
3198;DHT22;1611;49.394;11.136;2022-12-07T05:29:04;2.60;71.70
3198;DHT22;1611;49.394;11.136;2022-12-07T05:31:31;2.60;72.70
3198;DHT22;1611;49.394;11.136;2022-12-07T05:33:59;2.70;72.40
3198;DHT22;1611;49.394;11.136;2022-12-07T05:36:26;2.70;72.20
3198;DHT22;1611;49.394;11.136;2022-12-07T05:38:54;2.60;71.90
3198;DHT22;1611;49.394;11.136;2022-12-07T05:41:20;2.80;73.10
3198;DHT22;1611;49.394;11.136;2022-12-07T05:44:06;2.70;72.10
3198;DHT22;1611;49.394;11.136;2022-12-07T05:46:33;2.80;72.30
3198;DHT22;1611;49.394;11.136;2022-12-07T05:49:01;2.80;72.10
3198;DHT22;1611;49.394;11.136;2022-12-07T05:51:28;2.90;72.30
3198;DHT22;1611;49.394;11.136;2022-12-07T05:53:55;2.90;71.80
3198;DHT22;1611;49.394;11.136;2022-12-07T05:56:21;2.90;71.10
3198;DHT22;1611;49.394;11.136;2022-12-07T05:58:48;3.00;70.80
3198;DHT22;1611;49.394;11.136;2022-12-07T06:01:34;3.00;70.80
3198;DHT22;1611;49.394;11.136;2022-12-07T06:04:01;3.10;70.80
3198;DHT22;1611;49.394;11.136;2022-12-07T06:06:28;3.10;71.10
3198;DHT22;1611;49.394;11.136;2022-12-07T06:08:54;3.10;70.70
3198;DHT22;1611;49.394;11.136;2022-12-07T06:11:21;3.00;71.20
3198;DHT22;1611;49.394;11.136;2022-12-07T06:14:06;3.00;70.60
3198;DHT22;1611;49.394;11.136;2022-12-07T06:16:34;3.10;70.70
3198;DHT22;1611;49.394;11.136;2022-12-07T06:19:00;3.10;70.70
3198;DHT22;1611;49.394;11.136;2022-12-07T06:21:27;3.10;70.60
3198;DHT22;1611;49.394;11.136;2022-12-07T06:23:54;3.00;70.60
3198;DHT22;1611;49.394;11.136;2022-12-07T06:26:21;3.10;70.60
3198;DHT22;1611;49.394;11.136;2022-12-07T06:28:48;3.20;70.90
3198;DHT22;1611;49.394;11.136;2022-12-07T06:31:15;3.10;70.60
3198;DHT22;1611;49.394;11.136;2022-12-07T06:33:44;3.10;70.10
3198;DHT22;1611;49.394;11.136;2022-12-07T06:36:11;3.10;70.40
3198;DHT22;1611;49.394;11.136;2022-12-07T06:38:38;3.10;70.60
3198;DHT22;1611;49.394;11.136;2022-12-07T06:41:05;3.10;70.50
3198;DHT22;1611;49.394;11.136;2022-12-07T06:43:32;3.10;70.80
3198;DHT22;1611;49.394;11.136;2022-12-07T06:45:59;3.10;70.70
3198;DHT22;1611;49.394;11.136;2022-12-07T06:48:26;3.10;70.40
3198;DHT22;1611;49.394;11.136;2022-12-07T06:50:54;3.10;70.40
3198;DHT22;1611;49.394;11.136;2022-12-07T06:53:21;3.10;70.60
3198;DHT22;1611;49.394;11.136;2022-12-07T06:55:48;3.10;70.30
3198;DHT22;1611;49.394;11.136;2022-12-07T06:58:14;3.10;70.40
3198;DHT22;1611;49.394;11.136;2022-12-07T07:00:42;3.10;70.40
3198;DHT22;1611;49.394;11.136;2022-12-07T07:03:09;3.10;70.30
3198;DHT22;1611;49.394;11.136;2022-12-07T07:05:36;3.10;70.00
3198;DHT22;1611;49.394;11.136;2022-12-07T07:08:04;3.10;69.90
3198;DHT22;1611;49.394;11.136;2022-12-07T07:10:31;3.10;70.50
3198;DHT22;1611;49.394;11.136;2022-12-07T07:12:58;3.20;70.30
3198;DHT22;1611;49.394;11.136;2022-12-07T07:15:24;3.20;70.30
3198;DHT22;1611;49.394;11.136;2022-12-07T07:17:51;3.20;69.60
3198;DHT22;1611;49.394;11.136;2022-12-07T07:20:18;3.10;70.10
3198;DHT22;1611;49.394;11.136;2022-12-07T07:22:45;3.20;70.20
3198;DHT22;1611;49.394;11.136;2022-12-07T07:25:13;3.20;70.20
3198;DHT22;1611;49.394;11.136;2022-12-07T07:27:40;3.30;69.90
3198;DHT22;1611;49.394;11.136;2022-12-07T07:30:08;3.20;69.70
3198;DHT22;1611;49.394;11.136;2022-12-07T07:32:35;3.20;69.80
3198;DHT22;1611;49.394;11.136;2022-12-07T07:35:02;3.30;70.70
3198;DHT22;1611;49.394;11.136;2022-12-07T07:37:29;3.30;70.40
3198;DHT22;1611;49.394;11.136;2022-12-07T07:39:56;3.30;70.40
3198;DHT22;1611;49.394;11.136;2022-12-07T07:42:24;3.30;69.80
3198;DHT22;1611;49.394;11.136;2022-12-07T07:44:51;3.30;70.60
3198;DHT22;1611;49.394;11.136;2022-12-07T07:47:17;3.30;70.40
3198;DHT22;1611;49.394;11.136;2022-12-07T07:49:44;3.30;70.50
3198;DHT22;1611;49.394;11.136;2022-12-07T07:52:11;3.40;70.70
3198;DHT22;1611;49.394;11.136;2022-12-07T07:54:38;3.30;70.30
3198;DHT22;1611;49.394;11.136;2022-12-07T07:57:04;3.30;70.60
3198;DHT22;1611;49.394;11.136;2022-12-07T07:59:33;3.40;70.80
3198;DHT22;1611;49.394;11.136;2022-12-07T08:01:59;3.50;70.90
3198;DHT22;1611;49.394;11.136;2022-12-07T08:04:26;3.60;71.00
3198;DHT22;1611;49.394;11.136;2022-12-07T08:06:53;3.60;69.90
3198;DHT22;1611;49.394;11.136;2022-12-07T08:09:20;3.70;70.00
3198;DHT22;1611;49.394;11.136;2022-12-07T08:11:46;3.70;69.90
3198;DHT22;1611;49.394;11.136;2022-12-07T08:14:13;3.80;69.70
3198;DHT22;1611;49.394;11.136;2022-12-07T08:16:41;3.90;69.40
3198;DHT22;1611;49.394;11.136;2022-12-07T08:19:08;4.00;69.10
3198;DHT22;1611;49.394;11.136;2022-12-07T08:21:35;4.00;68.70
3198;DHT22;1611;49.394;11.136;2022-12-07T08:24:02;3.90;68.90
3198;DHT22;1611;49.394;11.136;2022-12-07T08:26:28;3.90;68.90
3198;DHT22;1611;49.394;11.136;2022-12-07T08:28:55;4.00;67.60
3198;DHT22;1611;49.394;11.136;2022-12-07T08:31:23;4.00;67.60
3198;DHT22;1611;49.394;11.136;2022-12-07T08:33:52;4.00;67.90
3198;DHT22;1611;49.394;11.136;2022-12-07T08:36:18;4.00;67.70
3198;DHT22;1611;49.394;11.136;2022-12-07T08:38:47;4.20;65.60
3198;DHT22;1611;49.394;11.136;2022-12-07T08:41:14;4.10;65.70
3198;DHT22;1611;49.394;11.136;2022-12-07T08:43:41;4.20;65.50
3198;DHT22;1611;49.394;11.136;2022-12-07T08:46:11;4.20;65.90
3198;DHT22;1611;49.394;11.136;2022-12-07T08:48:44;4.20;65.20
3198;DHT22;1611;49.394;11.136;2022-12-07T08:51:14;4.20;65.50
3198;DHT22;1611;49.394;11.136;2022-12-07T08:53:42;4.30;64.30
3198;DHT22;1611;49.394;11.136;2022-12-07T08:56:09;4.20;63.70
3198;DHT22;1611;49.394;11.136;2022-12-07T08:58:37;4.30;63.90
3198;DHT22;1611;49.394;11.136;2022-12-07T09:01:05;4.40;62.20
3198;DHT22;1611;49.394;11.136;2022-12-07T09:03:32;4.50;62.80
3198;DHT22;1611;49.394;11.136;2022-12-07T09:05:59;4.60;61.80
3198;DHT22;1611;49.394;11.136;2022-12-07T09:08:31;4.60;61.50
3198;DHT22;1611;49.394;11.136;2022-12-07T09:10:59;4.60;61.00
3198;DHT22;1611;49.394;11.136;2022-12-07T09:13:27;4.60;61.40
3198;DHT22;1611;49.394;11.136;2022-12-07T09:15:54;4.60;60.50
3198;DHT22;1611;49.394;11.136;2022-12-07T09:18:21;4.60;60.40
3198;DHT22;1611;49.394;11.136;2022-12-07T09:20:48;4.60;61.50
3198;DHT22;1611;49.394;11.136;2022-12-07T09:23:14;4.60;61.50
3198;DHT22;1611;49.394;11.136;2022-12-07T09:25:42;4.60;61.10
3198;DHT22;1611;49.394;11.136;2022-12-07T09:28:09;4.60;60.10
3198;DHT22;1611;49.394;11.136;2022-12-07T09:30:36;4.60;61.80
3198;DHT22;1611;49.394;11.136;2022-12-07T09:33:03;4.70;61.70
3198;DHT22;1611;49.394;11.136;2022-12-07T09:35:30;4.60;61.70
3198;DHT22;1611;49.394;11.136;2022-12-07T09:37:57;4.70;61.10
3198;DHT22;1611;49.394;11.136;2022-12-07T09:40:24;4.70;62.00
3198;DHT22;1611;49.394;11.136;2022-12-07T09:42:54;4.70;62.00
3198;DHT22;1611;49.394;11.136;2022-12-07T09:45:23;4.80;63.40
3198;DHT22;1611;49.394;11.136;2022-12-07T09:47:50;4.80;62.60
3198;DHT22;1611;49.394;11.136;2022-12-07T09:50:20;4.80;62.10
3198;DHT22;1611;49.394;11.136;2022-12-07T09:52:48;4.90;61.70
3198;DHT22;1611;49.394;11.136;2022-12-07T09:55:21;4.80;62.10
3198;DHT22;1611;49.394;11.136;2022-12-07T09:57:49;4.80;62.20
3198;DHT22;1611;49.394;11.136;2022-12-07T10:00:21;4.80;61.80
3198;DHT22;1611;49.394;11.136;2022-12-07T10:02:51;4.80;61.70
3198;DHT22;1611;49.394;11.136;2022-12-07T10:05:24;4.80;61.60
3198;DHT22;1611;49.394;11.136;2022-12-07T10:07:52;4.90;62.90
3198;DHT22;1611;49.394;11.136;2022-12-07T10:10:24;4.90;63.40
3198;DHT22;1611;49.394;11.136;2022-12-07T10:13:00;4.80;62.80
3198;DHT22;1611;49.394;11.136;2022-12-07T10:15:46;4.90;63.30
3198;DHT22;1611;49.394;11.136;2022-12-07T10:18:27;4.90;64.20
3198;DHT22;1611;49.394;11.136;2022-12-07T10:21:03;4.80;63.70
3198;DHT22;1611;49.394;11.136;2022-12-07T10:23:30;4.90;64.10
3198;DHT22;1611;49.394;11.136;2022-12-07T10:25:57;4.80;63.70
3198;DHT22;1611;49.394;11.136;2022-12-07T10:28:33;4.90;63.70
3198;DHT22;1611;49.394;11.136;2022-12-07T10:31:15;4.90;62.90
3198;DHT22;1611;49.394;11.136;2022-12-07T10:33:49;4.90;62.50
3198;DHT22;1611;49.394;11.136;2022-12-07T10:36:19;4.90;63.20
3198;DHT22;1611;49.394;11.136;2022-12-07T10:38:48;4.90;62.40
3198;DHT22;1611;49.394;11.136;2022-12-07T10:41:15;5.00;63.60
3198;DHT22;1611;49.394;11.136;2022-12-07T10:43:53;4.90;62.60
3198;DHT22;1611;49.394;11.136;2022-12-07T10:46:53;5.00;62.00
3198;DHT22;1611;49.394;11.136;2022-12-07T10:49:57;5.00;62.60
3198;DHT22;1611;49.394;11.136;2022-12-07T10:52:51;5.10;62.90
3198;DHT22;1611;49.394;11.136;2022-12-07T10:55:25;5.30;62.10
3198;DHT22;1611;49.394;11.136;2022-12-07T10:58:04;5.20;61.50
3198;DHT22;1611;49.394;11.136;2022-12-07T11:00:39;5.20;60.90
3198;DHT22;1611;49.394;11.136;2022-12-07T11:03:31;5.20;60.80
3198;DHT22;1611;49.394;11.136;2022-12-07T11:06:13;5.20;60.70
3198;DHT22;1611;49.394;11.136;2022-12-07T11:08:57;5.20;61.40
3198;DHT22;1611;49.394;11.136;2022-12-07T11:11:33;5.20;61.00
3198;DHT22;1611;49.394;11.136;2022-12-07T11:14:10;5.20;60.50
3198;DHT22;1611;49.394;11.136;2022-12-07T11:16:50;5.00;60.70
3198;DHT22;1611;49.394;11.136;2022-12-07T11:19:32;5.10;60.60
3198;DHT22;1611;49.394;11.136;2022-12-07T11:22:05;5.20;61.30
3198;DHT22;1611;49.394;11.136;2022-12-07T11:24:40;5.20;61.60
3198;DHT22;1611;49.394;11.136;2022-12-07T11:27:15;5.20;61.60
3198;DHT22;1611;49.394;11.136;2022-12-07T11:29:55;5.20;61.70
3198;DHT22;1611;49.394;11.136;2022-12-07T11:32:45;5.20;61.60
3198;DHT22;1611;49.394;11.136;2022-12-07T11:35:22;5.20;61.60
3198;DHT22;1611;49.394;11.136;2022-12-07T11:37:56;5.20;62.10
3198;DHT22;1611;49.394;11.136;2022-12-07T11:40:26;5.30;62.20
3198;DHT22;1611;49.394;11.136;2022-12-07T11:42:59;5.30;61.00
3198;DHT22;1611;49.394;11.136;2022-12-07T11:45:27;5.50;62.70
3198;DHT22;1611;49.394;11.136;2022-12-07T11:47:59;5.40;60.70
3198;DHT22;1611;49.394;11.136;2022-12-07T11:50:33;5.40;60.80
3198;DHT22;1611;49.394;11.136;2022-12-07T11:53:03;5.40;62.50
3198;DHT22;1611;49.394;11.136;2022-12-07T11:55:41;5.40;61.90
3198;DHT22;1611;49.394;11.136;2022-12-07T11:58:19;5.50;60.80
3198;DHT22;1611;49.394;11.136;2022-12-07T12:00:48;5.60;60.20
3198;DHT22;1611;49.394;11.136;2022-12-07T12:03:22;5.60;60.60
3198;DHT22;1611;49.394;11.136;2022-12-07T12:05:57;5.70;60.90
3198;DHT22;1611;49.394;11.136;2022-12-07T12:08:27;5.60;59.80
3198;DHT22;1611;49.394;11.136;2022-12-07T12:11:02;5.70;60.90
3198;DHT22;1611;49.394;11.136;2022-12-07T12:13:51;5.60;59.90
3198;DHT22;1611;49.394;11.136;2022-12-07T12:16:39;5.60;59.30
3198;DHT22;1611;49.394;11.136;2022-12-07T12:19:25;5.60;59.50
3198;DHT22;1611;49.394;11.136;2022-12-07T12:22:02;5.60;60.20
3198;DHT22;1611;49.394;11.136;2022-12-07T12:24:32;5.50;61.00
3198;DHT22;1611;49.394;11.136;2022-12-07T12:27:05;5.40;60.20
3198;DHT22;1611;49.394;11.136;2022-12-07T12:29:35;5.50;60.80
3198;DHT22;1611;49.394;11.136;2022-12-07T12:32:12;5.60;60.90
3198;DHT22;1611;49.394;11.136;2022-12-07T12:34:42;5.70;60.90
3198;DHT22;1611;49.394;11.136;2022-12-07T12:37:42;5.60;59.30
3198;DHT22;1611;49.394;11.136;2022-12-07T12:40:37;5.50;59.60
3198;DHT22;1611;49.394;11.136;2022-12-07T12:43:46;5.50;60.40
3198;DHT22;1611;49.394;11.136;2022-12-07T12:46:45;5.60;60.70
3198;DHT22;1611;49.394;11.136;2022-12-07T12:49:43;5.70;60.70
3198;DHT22;1611;49.394;11.136;2022-12-07T12:58:33;5.60;59.90
3198;DHT22;1611;49.394;11.136;2022-12-07T13:01:38;5.60;59.70
3198;DHT22;1611;49.394;11.136;2022-12-07T13:10:34;5.60;59.90
3198;DHT22;1611;49.394;11.136;2022-12-07T13:13:03;5.60;60.30
3198;DHT22;1611;49.394;11.136;2022-12-07T13:15:33;5.60;60.60
3198;DHT22;1611;49.394;11.136;2022-12-07T13:18:22;5.60;60.10
3198;DHT22;1611;49.394;11.136;2022-12-07T13:20:52;5.70;59.80
3198;DHT22;1611;49.394;11.136;2022-12-07T13:23:25;5.70;59.50
3198;DHT22;1611;49.394;11.136;2022-12-07T13:26:09;5.60;59.70
3198;DHT22;1611;49.394;11.136;2022-12-07T13:28:43;5.60;60.10
3198;DHT22;1611;49.394;11.136;2022-12-07T13:31:25;5.60;59.90
3198;DHT22;1611;49.394;11.136;2022-12-07T13:33:57;5.50;60.10
3198;DHT22;1611;49.394;11.136;2022-12-07T13:36:25;5.40;60.00
3198;DHT22;1611;49.394;11.136;2022-12-07T13:38:55;5.40;61.20
3198;DHT22;1611;49.394;11.136;2022-12-07T13:41:24;5.50;61.70
3198;DHT22;1611;49.394;11.136;2022-12-07T13:43:59;5.50;61.60
3198;DHT22;1611;49.394;11.136;2022-12-07T13:46:34;5.50;61.80
3198;DHT22;1611;49.394;11.136;2022-12-07T13:49:02;5.50;62.00
3198;DHT22;1611;49.394;11.136;2022-12-07T13:51:29;5.40;62.30
3198;DHT22;1611;49.394;11.136;2022-12-07T13:54:08;5.40;61.90
3198;DHT22;1611;49.394;11.136;2022-12-07T13:56:37;5.30;61.20
3198;DHT22;1611;49.394;11.136;2022-12-07T13:59:07;5.40;62.30
3198;DHT22;1611;49.394;11.136;2022-12-07T14:01:37;5.30;62.90
3198;DHT22;1611;49.394;11.136;2022-12-07T14:04:30;5.20;61.90
3198;DHT22;1611;49.394;11.136;2022-12-07T14:06:58;5.20;62.40
3198;DHT22;1611;49.394;11.136;2022-12-07T14:09:27;5.30;63.00
3198;DHT22;1611;49.394;11.136;2022-12-07T14:11:56;5.30;63.60
3198;DHT22;1611;49.394;11.136;2022-12-07T14:14:26;5.20;63.30
3198;DHT22;1611;49.394;11.136;2022-12-07T14:16:59;5.20;63.40
3198;DHT22;1611;49.394;11.136;2022-12-07T14:19:42;5.20;62.90
3198;DHT22;1611;49.394;11.136;2022-12-07T14:22:25;5.10;62.90
3198;DHT22;1611;49.394;11.136;2022-12-07T14:25:13;5.10;62.70
3198;DHT22;1611;49.394;11.136;2022-12-07T14:27:50;5.10;63.20
3198;DHT22;1611;49.394;11.136;2022-12-07T14:30:19;5.20;62.50
3198;DHT22;1611;49.394;11.136;2022-12-07T14:32:47;5.10;62.40
3198;DHT22;1611;49.394;11.136;2022-12-07T14:35:16;5.20;62.60
3198;DHT22;1611;49.394;11.136;2022-12-07T14:37:45;5.20;61.80
3198;DHT22;1611;49.394;11.136;2022-12-07T14:40:14;5.30;62.30
3198;DHT22;1611;49.394;11.136;2022-12-07T14:42:42;5.30;62.50
3198;DHT22;1611;49.394;11.136;2022-12-07T14:45:16;5.20;62.40
3198;DHT22;1611;49.394;11.136;2022-12-07T14:47:43;5.20;62.20
3198;DHT22;1611;49.394;11.136;2022-12-07T14:50:12;5.30;62.50
3198;DHT22;1611;49.394;11.136;2022-12-07T14:52:40;5.30;62.40
3198;DHT22;1611;49.394;11.136;2022-12-07T14:55:13;5.30;62.10
3198;DHT22;1611;49.394;11.136;2022-12-07T14:57:41;5.30;62.30
3198;DHT22;1611;49.394;11.136;2022-12-07T15:00:15;5.30;62.00
3198;DHT22;1611;49.394;11.136;2022-12-07T15:02:42;5.30;62.20
3198;DHT22;1611;49.394;11.136;2022-12-07T15:07:18;5.30;62.50
3198;DHT22;1611;49.394;11.136;2022-12-07T15:08:14;5.20;61.80
3198;DHT22;1611;49.394;11.136;2022-12-07T15:10:41;5.30;62.00
3198;DHT22;1611;49.394;11.136;2022-12-07T15:13:08;5.30;62.00
3198;DHT22;1611;49.394;11.136;2022-12-07T15:15:54;5.10;61.10
3198;DHT22;1611;49.394;11.136;2022-12-07T15:18:22;4.90;61.60
3198;DHT22;1611;49.394;11.136;2022-12-07T15:20:50;4.90;62.60
3198;DHT22;1611;49.394;11.136;2022-12-07T15:23:17;4.90;63.10
3198;DHT22;1611;49.394;11.136;2022-12-07T15:25:46;4.90;63.30
3198;DHT22;1611;49.394;11.136;2022-12-07T15:28:13;5.00;63.50
3198;DHT22;1611;49.394;11.136;2022-12-07T15:30:41;5.00;63.40
3198;DHT22;1611;49.394;11.136;2022-12-07T15:33:10;5.00;63.20
3198;DHT22;1611;49.394;11.136;2022-12-07T15:35:38;4.90;62.80
3198;DHT22;1611;49.394;11.136;2022-12-07T15:38:05;4.90;63.40
3198;DHT22;1611;49.394;11.136;2022-12-07T15:40:32;4.90;63.50
3198;DHT22;1611;49.394;11.136;2022-12-07T15:42:59;4.90;63.10
3198;DHT22;1611;49.394;11.136;2022-12-07T15:45:25;4.90;63.40
3198;DHT22;1611;49.394;11.136;2022-12-07T15:47:51;5.00;63.40
3198;DHT22;1611;49.394;11.136;2022-12-07T15:50:22;5.00;63.00
3198;DHT22;1611;49.394;11.136;2022-12-07T15:52:49;5.00;62.90
3198;DHT22;1611;49.394;11.136;2022-12-07T15:55:15;5.00;62.60
3198;DHT22;1611;49.394;11.136;2022-12-07T15:57:42;5.00;63.00
3198;DHT22;1611;49.394;11.136;2022-12-07T16:00:10;4.90;62.70
3198;DHT22;1611;49.394;11.136;2022-12-07T16:02:38;4.90;62.90
3198;DHT22;1611;49.394;11.136;2022-12-07T16:05:05;4.90;63.50
3198;DHT22;1611;49.394;11.136;2022-12-07T16:07:33;4.80;63.20
3198;DHT22;1611;49.394;11.136;2022-12-07T16:10:00;4.80;63.10
3198;DHT22;1611;49.394;11.136;2022-12-07T16:12:26;4.80;62.50
3198;DHT22;1611;49.394;11.136;2022-12-07T16:14:53;4.80;62.50
3198;DHT22;1611;49.394;11.136;2022-12-07T16:17:20;4.80;63.00
3198;DHT22;1611;49.394;11.136;2022-12-07T16:19:47;4.70;63.70
3198;DHT22;1611;49.394;11.136;2022-12-07T16:22:13;4.90;63.60
3198;DHT22;1611;49.394;11.136;2022-12-07T16:24:42;4.80;63.30
3198;DHT22;1611;49.394;11.136;2022-12-07T16:27:09;4.80;63.10
3198;DHT22;1611;49.394;11.136;2022-12-07T16:29:35;4.90;63.00
3198;DHT22;1611;49.394;11.136;2022-12-07T16:32:02;4.90;62.10
3198;DHT22;1611;49.394;11.136;2022-12-07T16:34:29;4.90;62.40
3198;DHT22;1611;49.394;11.136;2022-12-07T16:36:56;4.90;63.10
3198;DHT22;1611;49.394;11.136;2022-12-07T16:39:23;5.00;62.80